Terminal Aerodrome Forecast
Issued by NWS Louisville, KY

Home | Current Version | Previous Version | Text Only | Print | Product List | Glossary On
Versions: 1 2 3 4 5 6 7 8 9 10 11 12 13 14 15 16 17
930
FTUS43 KLMK 271142
TAFBWG
TAF
KBWG 271142Z 2712/2812 00000KT P6SM VCSH BKN150
     FM271230 20008KT P6SM -SHRA VCTS SCT035CB BKN150
     FM271600 20009KT P6SM VCSH SCT040 BKN150
     FM272100 18007KT P6SM -SHRA VCTS SCT035CB BKN080
     FM280200 20007KT 4SM SHRA BR VCTS BKN035CB
     FM280700 VRB03KT 5SM BR BKN040=

USA.gov is the U.S. government's official web portal to all federal, state and local government web resources and services.